Terminal Aerodrome Forecast
Issued by NWS Charleston, WV

Current Version | Previous Version | Graphics & Text | Print | Product List | Glossary On
Versions: 1 2 3 4 5 6 7 8 9 10 11 12 13 14 15 16 17 18 19 20 21 22 23 24 25 26 27
000
FTUS41 KRLX 260540
TAFCRW
TAF
KCRW 260540Z 2606/2706 00000KT P6SM BKN050
     FM261100 00000KT P6SM VCTS OVC050CB
     FM261300 VRB03KT 6SM SHRA BR VCTS OVC035CB
     FM261500 20005KT P6SM BKN050
     FM261800 20007KT P6SM VCTS BKN050CB
     FM270300 VRB03KT P6SM SHRA VCTS BKN040CB=

USA.gov is the U.S. government's official web portal to all federal, state and local government web resources and services.